Time,TemperatureF,DewpointF,PressureIn,WindDirection,WindDirectionDegrees,WindSpeedMPH,WindSpeedGustMPH,Humidity,HourlyPrecipIn,Conditions,Clouds,dailyrainin,SoftwareType,DateUTC
2014-11-27 00:10:00,52.2,47.0,30.20,NNW,348,0.0,0.0,81,0.00,,,0.00,weatherlink.com 1.10,2014-11-27 08:10:00,
2014-11-27 00:25:00,51.3,45.0,30.19,North,349,0.0,0.0,79,0.00,,,0.00,weatherlink.com 1.10,2014-11-27 08:25:00,
2014-11-27 00:40:00,52.2,46.0,30.19,North,349,0.0,0.0,79,0.00,,,0.00,weatherlink.com 1.10,2014-11-27 08:40:00,
2014-11-27 00:55:00,52.5,46.0,30.19,NNW,348,0.0,0.0,79,0.00,,,0.00,weatherlink.com 1.10,2014-11-27 08:55:00,
2014-11-27 01:10:00,51.6,46.0,30.18,North,349,0.0,0.0,81,0.00,,,0.00,weatherlink.com 1.10,2014-11-27 09:10:00,
2014-11-27 01:25:00,51.8,47.0,30.18,North,349,0.0,0.0,82,0.00,,,0.00,weatherlink.com 1.10,2014-11-27 09:25:00,
2014-11-27 01:40:00,52.1,46.0,30.18,NNW,348,0.0,0.0,79,0.00,,,0.00,weatherlink.com 1.10,2014-11-27 09:40:00,
2014-11-27 01:55:00,52.5,47.0,30.18,North,349,0.0,0.0,81,0.00,,,0.00,weatherlink.com 1.10,2014-11-27 09:55:00,
2014-11-27 02:10:00,52.1,46.0,30.18,North,349,0.0,0.0,81,0.00,,,0.00,weatherlink.com 1.10,2014-11-27 10:10:00,
2014-11-27 02:25:00,52.0,47.0,30.18,NNW,348,0.0,0.0,82,0.00,,,0.00,weatherlink.com 1.10,2014-11-27 10:25:00,
2014-11-27 02:40:00,51.8,43.0,30.18,North,349,0.0,0.0,73,0.00,,,0.00,weatherlink.com 1.10,2014-11-27 10:40:00,
2014-11-27 02:55:00,52.6,46.0,30.18,North,349,0.0,0.0,77,0.00,,,0.00,weatherlink.com 1.10,2014-11-27 10:55:00,
2014-11-27 03:10:00,51.7,43.0,30.17,North,349,0.0,0.0,73,0.00,,,0.00,weatherlink.com 1.10,2014-11-27 11:10:00,
2014-11-27 03:25:00,51.7,45.0,30.17,NNW,348,0.0,0.0,78,0.00,,,0.00,weatherlink.com 1.10,2014-11-27 11:25:00,
2014-11-27 03:40:00,51.5,45.0,30.16,NNW,348,0.0,0.0,77,0.00,,,0.00,weatherlink.com 1.10,2014-11-27 11:40:00,
2014-11-27 03:55:00,50.9,44.0,30.16,North,349,0.0,0.0,77,0.00,,,0.00,weatherlink.com 1.10,2014-11-27 11:55:00,
2014-11-27 04:10:00,50.9,45.0,30.16,NNW,348,0.0,0.0,79,0.00,,,0.00,weatherlink.com 1.10,2014-11-27 12:10:00,
2014-11-27 04:25:00,50.5,42.0,30.16,North,349,0.0,0.0,73,0.00,,,0.00,weatherlink.com 1.10,2014-11-27 12:25:00,
2014-11-27 04:40:00,51.0,41.0,30.16,North,349,0.0,0.0,69,0.00,,,0.00,weatherlink.com 1.10,2014-11-27 12:40:00,
2014-11-27 04:55:00,51.4,43.0,30.15,North,349,0.0,0.0,74,0.00,,,0.00,weatherlink.com 1.10,2014-11-27 12:55:00,
2014-11-27 05:10:00,51.2,45.0,30.15,North,349,0.0,0.0,80,0.00,,,0.00,weatherlink.com 1.10,2014-11-27 13:10:00,
2014-11-27 05:25:00,50.1,45.0,30.16,North,349,0.0,0.0,82,0.00,,,0.00,weatherlink.com 1.10,2014-11-27 13:25:00,
2014-11-27 05:40:00,49.5,45.0,30.16,North,349,0.0,0.0,84,0.00,,,0.00,weatherlink.com 1.10,2014-11-27 13:40:00,
2014-11-27 05:55:00,49.4,46.0,30.16,North,349,0.0,0.0,88,0.00,,,0.00,weatherlink.com 1.10,2014-11-27 13:55:00,
2014-11-27 06:10:00,48.8,45.0,30.16,North,349,0.0,0.0,85,0.00,,,0.00,weatherlink.com 1.10,2014-11-27 14:10:00,
2014-11-27 06:25:00,48.2,42.0,30.16,North,349,0.0,0.0,78,0.00,,,0.00,weatherlink.com 1.10,2014-11-27 14:25:00,
2014-11-27 06:40:00,48.1,40.0,30.16,North,349,0.0,0.0,73,0.00,,,0.00,weatherlink.com 1.10,2014-11-27 14:40:00,
2014-11-27 06:55:00,48.1,38.0,30.17,North,349,0.0,0.0,69,0.00,,,0.00,weatherlink.com 1.10,2014-11-27 14:55:00,
2014-11-27 07:10:00,48.1,42.0,30.17,North,349,0.0,0.0,78,0.00,,,0.00,weatherlink.com 1.10,2014-11-27 15:10:00,
2014-11-27 07:25:00,47.8,43.0,30.17,NNW,348,0.0,0.0,83,0.00,,,0.00,weatherlink.com 1.10,2014-11-27 15:25:00,
2014-11-27 07:40:00,48.7,46.0,30.17,North,349,0.0,0.0,90,0.00,,,0.00,weatherlink.com 1.10,2014-11-27 15:40:00,
2014-11-27 07:56:00,50.1,48.0,30.17,North,349,0.0,0.0,93,0.00,,,0.00,weatherlink.com 1.10,2014-11-27 15:56:00,
2014-11-27 08:11:00,51.4,50.0,30.17,North,349,0.0,0.0,94,0.00,,,0.00,weatherlink.com 1.10,2014-11-27 16:11:00,
2014-11-27 08:26:00,52.4,51.0,30.17,NNW,348,0.0,1.0,93,0.00,,,0.00,weatherlink.com 1.10,2014-11-27 16:26:00,
2014-11-27 08:41:00,52.8,44.0,30.18,North,349,0.0,0.0,71,0.00,,,0.00,weatherlink.com 1.10,2014-11-27 16:41:00,
2014-11-27 09:11:00,55.9,48.0,30.17,North,349,0.0,0.0,76,0.00,,,0.00,weatherlink.com 1.10,2014-11-27 17:11:00,
2014-11-27 09:26:00,56.9,50.0,30.17,North,349,0.0,0.0,77,0.00,,,0.00,weatherlink.com 1.10,2014-11-27 17:26:00,